Time;durP1;ratioP1;P1;durP2;ratioP2;P2;SDS_P1;SDS_P2;PMS_P1;PMS_P2;Temp;Humidity;BMP_temperature;BMP_pressure;BME280_temperature;BME280_humidity;BME280_pressure;Samples;Min_cycle;Max_cycle;Signal;HPM_P1;HPM_P2
2023/12/09 00:01:54;;;;;;;;;;;;;;;21.26;17.55;98220.03;5027758;28;19974;-83
2023/12/09 00:04:20;;;;;;;;;;;;;;;21.11;17.50;98224.94;5030116;28;19921;-83
2023/12/09 00:06:47;;;;;;;;;;;;;;;21.10;17.66;98228.09;5030643;28;19989;-83
2023/12/09 00:09:14;;;;;;;;;;;;;;;21.63;17.16;98234.06;5029825;28;19965;-82
2023/12/09 00:11:40;;;;;;;;;;;;;;;21.67;16.96;98234.00;5030316;28;20335;-83
2023/12/09 00:14:06;;;;;;;;;;;;;;;21.20;17.41;98227.25;5024165;28;19957;-83
2023/12/09 00:16:32;;;;;;;;;;;;;;;20.51;17.99;98236.41;5030238;28;20357;-83
2023/12/09 00:18:59;;;;;;;;;;;;;;;20.12;18.53;98224.63;5030078;28;19913;-83
2023/12/09 00:21:25;;;;;;;;;;;;;;;20.17;18.38;98226.19;5011944;28;19971;-82
2023/12/09 00:23:51;;;;;;;;;;;;;;;20.57;18.06;98232.03;5030508;28;19913;-83
2023/12/09 00:26:17;;;;;;;;;;;;;;;21.01;17.53;98236.94;5030518;28;19962;-83
2023/12/09 00:28:43;;;;;;;;;;;;;;;21.32;17.29;98226.75;5030629;28;19953;-83
2023/12/09 00:31:09;;;;;;;;;;;;;;;21.56;17.06;98224.94;5021357;28;19921;-83
2023/12/09 00:33:35;;;;;;;;;;;;;;;21.79;16.81;98225.91;5029187;28;20405;-83
2023/12/09 00:36:01;;;;;;;;;;;;;;;21.51;17.16;98231.78;5034645;28;19917;-83
2023/12/09 00:38:28;;;;;;;;;;;;;;;21.98;16.47;98230.13;5033687;28;19924;-83
2023/12/09 00:40:54;;;;;;;;;;;;;;;22.28;16.59;98235.75;5029032;28;19925;-83
2023/12/09 00:43:20;;;;;;;;;;;;;;;22.22;16.60;98237.41;5032470;28;19932;-83
2023/12/09 00:45:46;;;;;;;;;;;;;;;21.79;16.70;98237.09;5033421;28;19928;-83
2023/12/09 00:48:12;;;;;;;;;;;;;;;20.99;17.31;98227.38;5031732;28;19925;-83
2023/12/09 00:50:38;;;;;;;;;;;;;;;21.11;17.35;98236.09;5030922;28;20017;-83
2023/12/09 00:53:04;;;;;;;;;;;;;;;21.36;17.00;98224.72;5033348;28;19929;-83
2023/12/09 00:55:31;;;;;;;;;;;;;;;21.42;17.02;98227.88;5032826;28;19993;-83
2023/12/09 00:57:57;;;;;;;;;;;;;;;21.16;17.19;98229.28;5009146;28;19956;-83
2023/12/09 01:00:25;;;;;;;;;;;;;;;21.13;17.42;98235.66;5023220;28;19971;-83
2023/12/09 01:02:51;;;;;;;;;;;;;;;21.82;16.60;98241.06;5032258;28;19974;-83
2023/12/09 01:05:17;;;;;;;;;;;;;;;21.77;16.71;98233.91;5031555;28;19921;-83
2023/12/09 01:07:44;;;;;;;;;;;;;;;21.16;17.18;98224.50;5032261;28;19913;-83
2023/12/09 01:10:10;;;;;;;;;;;;;;;21.05;17.14;98229.34;5032780;28;19921;-83
2023/12/09 01:12:36;;;;;;;;;;;;;;;20.38;17.79;98229.72;5030911;28;19928;-83
2023/12/09 01:15:03;;;;;;;;;;;;;;;20.21;18.06;98232.56;5032741;28;19938;-83
2023/12/09 01:17:29;;;;;;;;;;;;;;;20.19;18.20;98229.38;5031476;28;20012;-83
2023/12/09 01:19:55;;;;;;;;;;;;;;;20.86;17.52;98229.06;5032247;28;19917;-83
2023/12/09 01:22:21;;;;;;;;;;;;;;;21.17;17.10;98240.03;5032442;28;19917;-83
2023/12/09 01:24:47;;;;;;;;;;;;;;;21.64;16.65;98238.41;5031342;28;19928;-83
2023/12/09 01:27:13;;;;;;;;;;;;;;;21.82;16.37;98241.81;5023412;28;20016;-83
2023/12/09 01:29:40;;;;;;;;;;;;;;;21.88;16.26;98236.63;5027152;28;19942;-83
2023/12/09 01:32:06;;;;;;;;;;;;;;;22.12;16.24;98241.16;5031539;28;19953;-83
2023/12/09 01:34:32;;;;;;;;;;;;;;;22.36;15.96;98240.03;5030931;28;19955;-83
2023/12/09 01:36:58;;;;;;;;;;;;;;;22.63;15.97;98240.13;5032052;28;19940;-83
2023/12/09 01:39:24;;;;;;;;;;;;;;;22.73;15.68;98239.22;5005504;28;19921;-83
2023/12/09 01:41:51;;;;;;;;;;;;;;;22.87;15.57;98235.41;5032025;28;19922;-83
2023/12/09 01:44:18;;;;;;;;;;;;;;;22.99;15.21;98235.59;5030535;28;19921;-83
2023/12/09 01:46:44;;;;;;;;;;;;;;;22.83;15.34;98241.03;5031813;28;20297;-83
2023/12/09 01:49:10;;;;;;;;;;;;;;;22.64;15.60;98245.31;5030758;28;19925;-83
2023/12/09 01:51:38;;;;;;;;;;;;;;;22.70;15.64;98248.44;5031029;28;20089;-83
2023/12/09 01:54:04;;;;;;;;;;;;;;;22.85;15.43;98254.66;5031907;28;19929;-83
2023/12/09 01:56:30;;;;;;;;;;;;;;;22.91;15.48;98258.53;5031934;28;20028;-83
2023/12/09 01:58:57;;;;;;;;;;;;;;;22.77;15.43;98258.75;5028914;28;20246;-82
2023/12/09 02:01:23;;;;;;;;;;;;;;;22.00;15.92;98259.25;5031577;28;19936;-82
2023/12/09 02:03:50;;;;;;;;;;;;;;;21.68;16.37;98261.53;5032343;28;20397;-83
2023/12/09 02:06:16;;;;;;;;;;;;;;;22.13;16.12;98262.31;5032610;28;20374;-83
2023/12/09 02:08:42;;;;;;;;;;;;;;;22.03;15.96;98261.19;5032622;28;19970;-82
2023/12/09 02:11:14;;;;;;;;;;;;;;;21.78;16.21;98257.03;5032643;28;20374;-83
2023/12/09 02:13:43;;;;;;;;;;;;;;;21.79;16.21;98259.44;5025880;28;20461;-82
2023/12/09 02:16:11;;;;;;;;;;;;;;;21.65;16.13;98253.19;5031746;28;20374;-82
2023/12/09 02:18:39;;;;;;;;;;;;;;;21.33;16.46;98247.91;5032460;28;20320;-82
2023/12/09 02:21:05;;;;;;;;;;;;;;;21.57;16.20;98260.84;5015228;28;20016;-82
2023/12/09 02:23:31;;;;;;;;;;;;;;;21.79;16.10;98267.03;5031836;28;19956;-83
2023/12/09 02:26:00;;;;;;;;;;;;;;;22.04;16.03;98262.00;5032435;28;19913;-83
2023/12/09 02:28:27;;;;;;;;;;;;;;;22.22;15.64;98259.03;5016087;28;19975;-83
2023/12/09 02:31:04;;;;;;;;;;;;;;;22.40;15.49;98265.19;5018417;28;19928;-83
2023/12/09 02:33:31;;;;;;;;;;;;;;;22.43;15.60;98256.75;5030124;28;19917;-83
2023/12/09 02:35:59;;;;;;;;;;;;;;;22.36;15.54;98264.44;5031543;28;19921;-83
2023/12/09 02:38:26;;;;;;;;;;;;;;;22.16;15.63;98257.88;5032095;28;19917;-82
2023/12/09 02:40:52;;;;;;;;;;;;;;;22.02;15.63;98265.22;5032392;28;19925;-83
2023/12/09 02:43:19;;;;;;;;;;;;;;;21.89;15.85;98257.78;5030256;28;19932;-83
2023/12/09 02:45:47;;;;;;;;;;;;;;;21.33;16.21;98259.84;5026520;28;20412;-83
2023/12/09 02:48:14;;;;;;;;;;;;;;;20.86;16.64;98254.19;5030872;28;19917;-83
2023/12/09 02:50:40;;;;;;;;;;;;;;;20.67;17.01;98256.28;5032302;28;20385;-83
2023/12/09 02:53:06;;;;;;;;;;;;;;;20.71;16.84;98259.03;5014146;28;19917;-83
2023/12/09 02:55:32;;;;;;;;;;;;;;;20.63;16.96;98260.31;5031082;28;19921;-82
2023/12/09 02:57:58;;;;;;;;;;;;;;;21.04;16.49;98255.69;5031240;28;19921;-83
2023/12/09 03:00:24;;;;;;;;;;;;;;;20.86;16.46;98251.41;5031242;28;19930;-82
2023/12/09 03:02:50;;;;;;;;;;;;;;;20.41;16.96;98248.44;5024547;28;19968;-83
2023/12/09 03:05:16;;;;;;;;;;;;;;;20.42;16.77;98250.00;5028125;28;19921;-83
2023/12/09 03:07:42;;;;;;;;;;;;;;;20.83;16.43;98243.81;5031386;28;20294;-82
2023/12/09 03:10:08;;;;;;;;;;;;;;;20.99;16.23;98246.91;5031887;28;19956;-82
2023/12/09 03:12:34;;;;;;;;;;;;;;;20.05;16.71;98251.75;5031517;28;19917;-82
2023/12/09 03:15:05;;;;;;;;;;;;;;;19.23;17.38;98251.00;5030754;28;19944;-82
2023/12/09 03:17:32;;;;;;;;;;;;;;;18.24;18.14;98248.00;5029707;28;19963;-82
2023/12/09 03:19:58;;;;;;;;;;;;;;;18.36;18.19;98247.66;5029402;28;19942;-82
2023/12/09 03:22:24;;;;;;;;;;;;;;;18.52;17.80;98245.34;5031321;28;19917;-82
2023/12/09 03:24:50;;;;;;;;;;;;;;;18.88;17.48;98248.22;5010573;28;20081;-82
2023/12/09 03:27:17;;;;;;;;;;;;;;;19.56;16.88;98247.03;5010504;28;19925;-82
2023/12/09 03:29:43;;;;;;;;;;;;;;;19.87;16.42;98254.56;5019943;28;20373;-82
2023/12/09 03:32:09;;;;;;;;;;;;;;;19.81;16.42;98251.38;5030691;28;20382;-82
2023/12/09 03:34:35;;;;;;;;;;;;;;;19.55;16.76;98249.06;5030713;28;19928;-82
2023/12/09 03:37:01;;;;;;;;;;;;;;;19.78;16.61;98252.19;5031040;28;19970;-82
2023/12/09 03:39:27;;;;;;;;;;;;;;;20.14;16.26;98250.09;5031606;28;19964;-82
2023/12/09 03:41:53;;;;;;;;;;;;;;;20.78;15.67;98259.00;5077994;28;20379;-82
2023/12/09 03:44:19;;;;;;;;;;;;;;;20.95;15.63;98254.53;5083491;28;19921;-83
2023/12/09 03:46:45;;;;;;;;;;;;;;;20.26;16.02;98243.31;5029787;28;20293;-82
2023/12/09 03:49:11;;;;;;;;;;;;;;;19.45;16.67;98249.03;5030752;28;19917;-82
2023/12/09 03:51:37;;;;;;;;;;;;;;;18.66;17.28;98255.69;5030330;28;19940;-82
2023/12/09 03:54:04;;;;;;;;;;;;;;;19.19;16.97;98253.78;5030846;28;19921;-82
2023/12/09 03:56:30;;;;;;;;;;;;;;;19.57;16.59;98246.66;5030781;28;19939;-83
2023/12/09 03:58:56;;;;;;;;;;;;;;;19.09;17.03;98251.03;5029584;28;20285;-83
2023/12/09 04:01:24;;;;;;;;;;;;;;;18.70;17.51;98259.28;5030643;28;19952;-82
2023/12/09 04:03:50;;;;;;;;;;;;;;;18.77;17.42;98248.19;5030943;28;19973;-82
2023/12/09 04:06:17;;;;;;;;;;;;;;;18.52;17.66;98256.47;5030896;28;20405;-82
2023/12/09 04:08:43;;;;;;;;;;;;;;;18.35;18.03;98259.13;5029748;28;19920;-82
2023/12/09 04:11:09;;;;;;;;;;;;;;;18.87;17.56;98257.72;5030971;28;20013;-82
2023/12/09 04:13:35;;;;;;;;;;;;;;;19.44;16.93;98242.69;5030154;28;20307;-82
2023/12/09 04:16:01;;;;;;;;;;;;;;;19.31;16.98;98242.28;5011722;28;19921;-82
2023/12/09 04:18:27;;;;;;;;;;;;;;;19.94;16.33;98246.19;5030602;28;19954;-82
2023/12/09 04:20:54;;;;;;;;;;;;;;;20.49;15.75;98244.41;5030631;28;19921;-82
2023/12/09 04:23:20;;;;;;;;;;;;;;;20.36;15.97;98239.69;5030191;28;20438;-82
2023/12/09 04:25:46;;;;;;;;;;;;;;;18.86;16.76;98245.00;5029864;28;19921;-81
2023/12/09 04:28:12;;;;;;;;;;;;;;;18.31;17.38;98244.44;5008825;28;20408;-81
2023/12/09 04:30:38;;;;;;;;;;;;;;;18.14;17.79;98242.38;5030056;28;19928;-82
2023/12/09 04:33:04;;;;;;;;;;;;;;;18.80;17.25;98243.81;5028886;28;19921;-82
2023/12/09 04:35:30;;;;;;;;;;;;;;;19.15;16.63;98238.28;5030054;28;19982;-82
2023/12/09 04:37:56;;;;;;;;;;;;;;;18.37;17.24;98232.53;5030532;28;20442;-82
2023/12/09 04:40:23;;;;;;;;;;;;;;;18.34;17.54;98236.09;5030022;28;19929;-82
2023/12/09 04:42:49;;;;;;;;;;;;;;;19.46;16.54;98231.16;5030312;28;20382;-82
2023/12/09 04:45:15;;;;;;;;;;;;;;;20.09;16.00;98227.44;5029795;28;19922;-82
2023/12/09 04:47:41;;;;;;;;;;;;;;;20.32;15.75;98228.56;5030238;28;19924;-82
2023/12/09 04:50:10;;;;;;;;;;;;;;;20.86;15.43;98231.84;5018311;28;19968;-82
2023/12/09 04:52:37;;;;;;;;;;;;;;;21.23;15.04;98238.41;5010904;28;19918;-82
2023/12/09 04:55:03;;;;;;;;;;;;;;;21.28;14.84;98240.72;5022752;28;20487;-82
2023/12/09 04:57:32;;;;;;;;;;;;;;;20.51;15.29;98232.84;5030110;28;19917;-81
2023/12/09 04:59:58;;;;;;;;;;;;;;;19.78;15.99;98243.03;5029858;28;19927;-82
2023/12/09 05:02:24;;;;;;;;;;;;;;;19.02;16.40;98240.66;5029471;28;20020;-82
2023/12/09 05:04:52;;;;;;;;;;;;;;;19.25;16.58;98232.72;5026004;28;19921;-82
2023/12/09 05:07:18;;;;;;;;;;;;;;;20.12;15.87;98232.22;5030142;28;19959;-82
2023/12/09 05:09:44;;;;;;;;;;;;;;;20.26;15.60;98230.16;5029627;28;19921;-82
2023/12/09 05:12:10;;;;;;;;;;;;;;;20.51;15.58;98230.84;5030335;28;20279;-82
2023/12/09 05:14:36;;;;;;;;;;;;;;;19.74;15.57;98233.91;5007891;28;20004;-82
2023/12/09 05:17:02;;;;;;;;;;;;;;;19.26;16.34;98231.53;5025984;28;19921;-82
2023/12/09 05:19:28;;;;;;;;;;;;;;;19.69;15.70;98229.53;5030470;28;19967;-82
2023/12/09 05:21:54;;;;;;;;;;;;;;;19.62;15.82;98240.69;5032271;28;19966;-82
2023/12/09 05:24:20;;;;;;;;;;;;;;;20.10;15.42;98242.94;5029738;28;19960;-82
2023/12/09 05:26:47;;;;;;;;;;;;;;;20.16;15.65;98230.19;5015545;28;19921;-82
2023/12/09 05:29:13;;;;;;;;;;;;;;;19.96;15.68;98238.22;5033407;28;19921;-82
2023/12/09 05:31:40;;;;;;;;;;;;;;;20.35;15.60;98235.34;5014301;28;19929;-82
2023/12/09 05:34:06;;;;;;;;;;;;;;;20.84;15.27;98234.28;5033181;28;19924;-82
2023/12/09 05:36:32;;;;;;;;;;;;;;;20.85;15.35;98238.63;5033348;28;19921;-82
2023/12/09 05:38:59;;;;;;;;;;;;;;;20.95;15.40;98243.34;5032740;28;19917;-82
2023/12/09 05:41:25;;;;;;;;;;;;;;;21.17;15.03;98228.06;5031029;28;20289;-82
2023/12/09 05:43:51;;;;;;;;;;;;;;;21.40;14.88;98239.44;5032639;28;19921;-82
2023/12/09 05:46:20;;;;;;;;;;;;;;;21.60;14.48;98246.06;5030095;28;19974;-82
2023/12/09 05:48:47;;;;;;;;;;;;;;;21.08;14.75;98253.66;5030974;28;19921;-82
2023/12/09 05:51:13;;;;;;;;;;;;;;;21.40;14.77;98247.03;5032841;28;19921;-82
2023/12/09 05:53:39;;;;;;;;;;;;;;;21.27;14.47;98244.75;5014840;28;19939;-82
2023/12/09 05:56:08;;;;;;;;;;;;;;;20.11;15.17;98236.19;5033534;28;20397;-82
2023/12/09 05:58:34;;;;;;;;;;;;;;;20.40;15.17;98244.06;5031854;28;19921;-82
2023/12/09 06:01:00;;;;;;;;;;;;;;;20.63;15.11;98238.75;5032120;28;20012;-82
2023/12/09 06:03:26;;;;;;;;;;;;;;;20.73;15.00;98233.50;5030263;28;20334;-82
2023/12/09 06:05:52;;;;;;;;;;;;;;;20.90;14.90;98229.81;5010948;28;19921;-82
2023/12/09 06:08:18;;;;;;;;;;;;;;;21.17;14.78;98237.22;5029790;28;19940;-82
2023/12/09 06:10:44;;;;;;;;;;;;;;;21.31;14.62;98239.91;5030678;28;19917;-82
2023/12/09 06:13:11;;;;;;;;;;;;;;;21.35;14.59;98234.31;5021156;28;20394;-82
2023/12/09 06:15:37;;;;;;;;;;;;;;;21.46;14.51;98239.78;5022852;28;19982;-82
2023/12/09 06:18:03;;;;;;;;;;;;;;;20.70;14.64;98240.69;5027638;28;19953;-82
2023/12/09 06:20:29;;;;;;;;;;;;;;;20.33;15.04;98251.66;5032171;28;19962;-82
2023/12/09 06:22:55;;;;;;;;;;;;;;;20.65;15.08;98241.94;5018501;28;20267;-82
2023/12/09 06:25:22;;;;;;;;;;;;;;;20.79;15.03;98245.84;5032371;28;20008;-82
2023/12/09 06:27:48;;;;;;;;;;;;;;;21.02;14.99;98249.69;5026929;28;19925;-82
2023/12/09 06:30:14;;;;;;;;;;;;;;;21.30;14.62;98246.72;5012126;28;19924;-82
2023/12/09 06:32:41;;;;;;;;;;;;;;;21.56;14.57;98242.50;5028810;28;19921;-82
2023/12/09 06:35:08;;;;;;;;;;;;;;;21.79;14.26;98237.09;5022552;28;20012;-82
2023/12/09 06:37:34;;;;;;;;;;;;;;;21.95;14.06;98237.34;5022503;28;19936;-81
2023/12/09 06:40:00;;;;;;;;;;;;;;;22.02;14.09;98237.25;5029955;28;19967;-82
2023/12/09 06:42:26;;;;;;;;;;;;;;;21.95;14.08;98237.34;5029707;28;20322;-82
2023/12/09 06:44:52;;;;;;;;;;;;;;;20.96;14.36;98233.75;5025466;28;19921;-82
2023/12/09 06:47:19;;;;;;;;;;;;;;;20.86;14.37;98229.06;4995705;28;19917;-82
2023/12/09 06:49:45;;;;;;;;;;;;;;;20.33;15.05;98237.72;5021843;28;19967;-82
2023/12/09 06:52:12;;;;;;;;;;;;;;;20.53;14.90;98239.63;5017946;28;19960;-82
2023/12/09 06:54:38;;;;;;;;;;;;;;;20.53;15.11;98238.81;5016419;28;19918;-82
2023/12/09 06:57:04;;;;;;;;;;;;;;;20.68;14.99;98240.31;5011482;28;20429;-82
2023/12/09 06:59:31;;;;;;;;;;;;;;;20.78;14.96;98238.66;5013200;28;19917;-82
2023/12/09 07:01:57;;;;;;;;;;;;;;;21.19;14.94;98234.81;5014377;28;19921;-82
2023/12/09 07:04:23;;;;;;;;;;;;;;;21.66;14.44;98238.78;5011860;28;20377;-82
2023/12/09 07:06:49;;;;;;;;;;;;;;;21.66;14.50;98241.59;5020939;28;20405;-82
2023/12/09 07:09:15;;;;;;;;;;;;;;;21.46;14.63;98232.22;5021134;28;19981;-82
2023/12/09 07:11:42;;;;;;;;;;;;;;;21.39;14.59;98226.69;5023098;28;20019;-82
2023/12/09 07:14:08;;;;;;;;;;;;;;;21.07;14.89;98237.31;5010786;28;19918;-82
2023/12/09 07:16:35;;;;;;;;;;;;;;;21.31;15.06;98236.31;5030083;28;19917;-82
2023/12/09 07:19:01;;;;;;;;;;;;;;;21.66;14.85;98238.00;5022674;28;20358;-82
2023/12/09 07:21:27;;;;;;;;;;;;;;;21.52;14.88;98238.94;5029276;28;19917;-81
2023/12/09 07:23:53;;;;;;;;;;;;;;;21.29;15.30;98236.75;5028394;28;20393;-82
2023/12/09 07:26:19;;;;;;;;;;;;;;;21.52;14.91;98238.94;5006990;28;19921;-83
2023/12/09 07:28:45;;;;;;;;;;;;;;;21.30;15.23;98229.16;5011029;28;20000;-83
2023/12/09 07:31:12;;;;;;;;;;;;;;;20.19;16.17;98227.38;5022801;28;19921;-82
2023/12/09 07:33:38;;;;;;;;;;;;;;;20.32;16.49;98233.34;5024485;28;19917;-82
2023/12/09 07:36:04;;;;;;;;;;;;;;;21.05;15.92;98226.53;5021250;28;20289;-82
2023/12/09 07:38:30;;;;;;;;;;;;;;;21.63;15.96;98231.25;5018791;28;19922;-82
2023/12/09 07:40:56;;;;;;;;;;;;;;;22.10;15.46;98221.19;5028740;28;19928;-82
2023/12/09 07:43:22;;;;;;;;;;;;;;;21.52;15.38;98230.53;5027148;28;20236;-82
2023/12/09 07:45:48;;;;;;;;;;;;;;;20.89;15.77;98225.44;5007881;28;19918;-82
2023/12/09 07:48:15;;;;;;;;;;;;;;;21.56;15.32;98222.94;5011528;28;19917;-82
2023/12/09 07:50:41;;;;;;;;;;;;;;;21.21;15.93;98214.88;5018405;28;19922;-82
2023/12/09 07:53:07;;;;;;;;;;;;;;;20.48;16.80;98219.72;5024422;28;20015;-82
2023/12/09 07:55:33;;;;;;;;;;;;;;;21.08;16.79;98222.16;5025184;28;20449;-82
2023/12/09 07:57:59;;;;;;;;;;;;;;;21.96;15.98;98229.75;5075496;28;19919;-82
2023/12/09 08:00:27;;;;;;;;;;;;;;;22.57;15.71;98220.19;5042791;28;20016;-82
2023/12/09 08:02:54;;;;;;;;;;;;;;;22.72;15.56;98220.03;5023911;28;19925;-82
2023/12/09 08:05:21;;;;;;;;;;;;;;;22.57;16.14;98219.38;5046548;28;19917;-82
2023/12/09 08:07:48;;;;;;;;;;;;;;;22.78;15.52;98209.94;5022012;28;20286;-82
2023/12/09 08:10:14;;;;;;;;;;;;;;;23.10;15.90;98207.44;5025650;28;20346;-82
2023/12/09 08:12:40;;;;;;;;;;;;;;;23.39;15.71;98214.19;5027682;28;19929;-83
2023/12/09 08:15:06;;;;;;;;;;;;;;;23.48;15.50;98205.25;5021997;28;20019;-81
2023/12/09 08:17:32;;;;;;;;;;;;;;;23.22;15.10;98212.47;5022921;28;20502;-82
2023/12/09 08:19:58;;;;;;;;;;;;;;;22.77;16.16;98213.94;5022468;28;19917;-83
2023/12/09 08:22:24;;;;;;;;;;;;;;;23.09;16.46;98219.84;5028151;28;19925;-82
2023/12/09 08:24:51;;;;;;;;;;;;;;;23.39;15.74;98225.41;5011064;28;20302;-83
2023/12/09 08:27:17;;;;;;;;;;;;;;;23.67;15.43;98222.09;5012644;28;19943;-87
2023/12/09 08:29:43;;;;;;;;;;;;;;;23.68;15.89;98220.09;5019512;28;20421;-86
2023/12/09 08:32:09;;;;;;;;;;;;;;;23.81;15.59;98226.66;5019123;28;20020;-85
2023/12/09 08:34:35;;;;;;;;;;;;;;;23.38;16.18;98227.41;5025383;28;20388;-85
2023/12/09 08:37:02;;;;;;;;;;;;;;;23.07;16.24;98216.69;5021403;28;19928;-85
2023/12/09 08:39:28;;;;;;;;;;;;;;;23.26;15.96;98216.78;5026408;28;19925;-87
2023/12/09 08:41:54;;;;;;;;;;;;;;;23.29;16.12;98217.94;5025081;28;19964;-87
2023/12/09 08:44:20;;;;;;;;;;;;;;;22.97;16.80;98226.03;5022733;28;19941;-86
2023/12/09 08:46:46;;;;;;;;;;;;;;;23.14;16.67;98227.78;5022550;28;19921;-87
2023/12/09 08:49:12;;;;;;;;;;;;;;;23.68;16.13;98225.69;5024195;28;19925;-87
2023/12/09 08:51:44;;;;;;;;;;;;;;;24.09;16.23;98223.34;5022996;28;19921;-85
2023/12/09 08:54:11;;;;;;;;;;;;;;;24.20;16.29;98220.34;5028647;28;19961;-85
2023/12/09 08:56:37;;;;;;;;;;;;;;;24.30;15.80;98228.53;5008557;28;19925;-85
2023/12/09 08:59:07;;;;;;;;;;;;;;;24.44;15.58;98231.03;5028582;28;19925;-85
2023/12/09 09:01:34;;;;;;;;;;;;;;;24.57;15.45;98217.94;5025642;28;19925;-85
2023/12/09 09:04:01;;;;;;;;;;;;;;;24.69;15.53;98219.28;5030397;27;19925;-83
2023/12/09 09:06:27;;;;;;;;;;;;;;;24.81;15.92;98221.44;5040189;27;19932;-83
2023/12/09 09:08:53;;;;;;;;;;;;;;;24.87;15.54;98230.94;5025928;28;19977;-83
2023/12/09 09:11:23;;;;;;;;;;;;;;;24.83;15.43;98227.44;5023365;28;19968;-83
2023/12/09 09:13:49;;;;;;;;;;;;;;;24.79;15.57;98214.66;5039052;27;19921;-82
2023/12/09 09:16:15;;;;;;;;;;;;;;;24.66;15.46;98214.53;5032793;27;20335;-82
2023/12/09 09:18:42;;;;;;;;;;;;;;;24.76;15.79;98215.53;5031563;28;19921;-83
2023/12/09 09:21:09;;;;;;;;;;;;;;;24.90;15.90;98215.22;5025455;28;19921;-82
2023/12/09 09:23:35;;;;;;;;;;;;;;;24.98;15.20;98220.25;5029798;28;20004;-83
2023/12/09 09:26:01;;;;;;;;;;;;;;;25.04;15.64;98215.66;5030195;28;19921;-82
2023/12/09 09:28:28;;;;;;;;;;;;;;;25.10;15.66;98216.75;5032120;28;20305;-82
2023/12/09 09:30:54;;;;;;;;;;;;;;;25.12;15.65;98207.88;5030777;28;19921;-82
2023/12/09 09:33:20;;;;;;;;;;;;;;;25.23;15.40;98197.16;5013101;28;19944;-83
2023/12/09 09:35:48;;;;;;;;;;;;;;;25.21;14.96;98197.59;5025064;28;19974;-82
2023/12/09 09:38:15;;;;;;;;;;;;;;;25.04;15.66;98193.19;5073274;27;19935;-82
2023/12/09 09:40:42;;;;;;;;;;;;;;;25.13;15.83;98196.22;5013244;28;20065;-82
2023/12/09 09:43:08;;;;;;;;;;;;;;;25.09;15.40;98187.06;5029135;28;19931;-81
2023/12/09 09:45:35;;;;;;;;;;;;;;;23.78;16.13;98182.66;5030659;28;20389;-83
2023/12/09 09:48:03;;;;;;;;;;;;;;;23.70;16.25;98181.22;5029330;28;19924;-83
2023/12/09 09:50:32;;;;;;;;;;;;;;;23.46;16.81;98180.44;5030696;28;20012;-81
2023/12/09 09:52:59;;;;;;;;;;;;;;;23.57;16.58;98183.06;5024445;28;19929;-83
2023/12/09 09:55:25;;;;;;;;;;;;;;;23.41;16.70;98182.97;5020208;28;19925;-82
2023/12/09 09:57:52;;;;;;;;;;;;;;;23.11;17.11;98187.41;5020740;28;20376;-83
2023/12/09 10:00:19;;;;;;;;;;;;;;;23.51;17.10;98187.56;5025197;28;19956;-83
2023/12/09 10:02:46;;;;;;;;;;;;;;;23.92;16.43;98185.19;5029761;28;20772;-84
2023/12/09 10:05:13;;;;;;;;;;;;;;;23.76;16.46;98179.47;5005665;28;19922;-83
2023/12/09 10:07:39;;;;;;;;;;;;;;;24.09;16.74;98177.66;5027710;27;19935;-84
2023/12/09 10:10:06;;;;;;;;;;;;;;;24.08;16.99;98176.09;5032743;27;19921;-84
2023/12/09 10:12:33;;;;;;;;;;;;;;;24.36;16.78;98170.69;5025950;28;19925;-84
2023/12/09 10:15:00;;;;;;;;;;;;;;;24.87;16.72;98163.53;5026510;28;20005;-84
2023/12/09 10:17:26;;;;;;;;;;;;;;;24.86;16.84;98173.16;5012738;28;20364;-84
2023/12/09 10:19:54;;;;;;;;;;;;;;;25.26;16.23;98157.72;5021704;28;19913;-84
2023/12/09 10:22:20;;;;;;;;;;;;;;;24.82;16.26;98161.25;5025566;28;19921;-82
2023/12/09 10:24:50;;;;;;;;;;;;;;;24.06;16.66;98151.28;5026731;28;19931;-83
2023/12/09 10:27:19;;;;;;;;;;;;;;;23.41;17.41;98146.53;5031248;28;19922;-84
2023/12/09 10:29:45;;;;;;;;;;;;;;;23.18;17.73;98145.28;5028381;28;19996;-84
2023/12/09 10:32:12;;;;;;;;;;;;;;;23.15;17.72;98142.56;5020565;28;20016;-84
2023/12/09 10:34:39;;;;;;;;;;;;;;;23.94;17.01;98138.66;5023147;28;19922;-83
2023/12/09 10:37:08;;;;;;;;;;;;;;;23.93;17.22;98139.09;5021417;28;19968;-84
2023/12/09 10:39:35;;;;;;;;;;;;;;;23.81;17.26;98120.91;5032373;27;19921;-84
2023/12/09 10:42:04;;;;;;;;;;;;;;;23.54;17.75;98130.66;5042581;28;19932;-83
2023/12/09 10:44:30;;;;;;;;;;;;;;;23.56;17.56;98128.22;5029921;28;19924;-83
2023/12/09 10:46:59;;;;;;;;;;;;;;;23.15;17.91;98134.91;5025923;28;19925;-83
2023/12/09 10:49:25;;;;;;;;;;;;;;;22.72;18.25;98134.06;5033862;28;19921;-83
2023/12/09 10:51:52;;;;;;;;;;;;;;;22.69;18.60;98137.69;5022636;28;20382;-85
2023/12/09 10:54:18;;;;;;;;;;;;;;;23.31;18.08;98131.47;5020485;28;19974;-84
2023/12/09 10:56:44;;;;;;;;;;;;;;;23.55;17.73;98129.44;5026819;28;20396;-85
2023/12/09 10:59:10;;;;;;;;;;;;;;;23.46;17.68;98123.59;5023047;27;19918;-84
2023/12/09 11:01:36;;;;;;;;;;;;;;;23.53;18.08;98132.66;5023098;28;19917;-84
2023/12/09 11:04:05;;;;;;;;;;;;;;;23.95;17.52;98133.84;5029392;28;20099;-84
2023/12/09 11:06:36;;;;;;;;;;;;;;;24.05;17.01;98128.03;5029977;28;19913;-84
2023/12/09 11:09:05;;;;;;;;;;;;;;;24.39;17.57;98127.69;5022057;28;20485;-84
2023/12/09 11:11:31;;;;;;;;;;;;;;;25.11;17.01;98130.44;5021019;28;19922;-84
2023/12/09 11:13:58;;;;;;;;;;;;;;;25.65;16.56;98136.28;5030861;28;19940;-83
2023/12/09 11:16:26;;;;;;;;;;;;;;;25.92;16.11;98143.13;5020448;28;19925;-85
2023/12/09 11:18:53;;;;;;;;;;;;;;;26.17;15.68;98133.97;5027254;28;20840;-84
2023/12/09 11:21:21;;;;;;;;;;;;;;;26.29;15.79;98126.81;5030402;28;19917;-85
2023/12/09 11:23:50;;;;;;;;;;;;;;;26.24;15.44;98116.88;5025580;27;19974;-84
2023/12/09 11:26:17;;;;;;;;;;;;;;;26.16;16.03;98115.53;5007760;28;19928;-84
2023/12/09 11:29:05;;;;;;;;;;;;;;;26.24;16.02;98121.72;5025542;28;19927;-85
2023/12/09 11:31:33;;;;;;;;;;;;;;;26.23;15.70;98120.97;5029290;27;19965;-85
2023/12/09 11:33:59;;;;;;;;;;;;;;;26.24;15.45;98118.91;5024098;28;19921;-85
2023/12/09 11:36:29;;;;;;;;;;;;;;;26.20;15.43;98121.03;5024829;28;21276;-86
2023/12/09 11:38:56;;;;;;;;;;;;;;;26.12;15.84;98114.84;5013867;28;19918;-85
2023/12/09 11:41:22;;;;;;;;;;;;;;;26.17;15.58;98110.69;5027330;28;19925;-85
2023/12/09 11:43:48;;;;;;;;;;;;;;;26.20;15.70;98107.78;5028711;28;19928;-86
2023/12/09 11:46:14;;;;;;;;;;;;;;;26.16;15.82;98104.28;5028744;28;20007;-83
2023/12/09 11:48:41;;;;;;;;;;;;;;;26.20;15.72;98109.78;5026033;28;20067;-84
2023/12/09 11:51:07;;;;;;;;;;;;;;;26.20;15.57;98112.59;5037067;28;20309;-84
2023/12/09 11:53:33;;;;;;;;;;;;;;;26.23;15.81;98106.88;5027410;28;19929;-84
2023/12/09 11:55:59;;;;;;;;;;;;;;;26.31;15.33;98096.16;5031059;27;20015;-84
2023/12/09 11:58:26;;;;;;;;;;;;;;;25.71;16.23;98100.75;5029573;27;20023;-84
2023/12/09 12:00:52;;;;;;;;;;;;;;;25.34;16.33;98096.50;5022605;27;20293;-82
2023/12/09 12:03:19;;;;;;;;;;;;;;;25.42;16.58;98089.44;5024323;28;19922;-82
2023/12/09 12:05:47;;;;;;;;;;;;;;;25.71;16.07;98090.28;5016774;28;20221;-84
2023/12/09 12:08:15;;;;;;;;;;;;;;;25.55;16.42;98092.34;5023263;28;19949;-82
2023/12/09 12:10:41;;;;;;;;;;;;;;;25.65;16.53;98094.88;5028275;28;19922;-83
2023/12/09 12:13:07;;;;;;;;;;;;;;;25.85;16.13;98094.72;5015587;28;19951;-84
2023/12/09 12:15:34;;;;;;;;;;;;;;;26.01;16.09;98083.38;5018802;28;19925;-84
2023/12/09 12:18:00;;;;;;;;;;;;;;;26.20;16.11;98076.81;5011755;28;20008;-84
2023/12/09 12:20:27;;;;;;;;;;;;;;;26.23;15.75;98075.91;5015441;28;20019;-84
2023/12/09 12:22:53;;;;;;;;;;;;;;;26.16;15.88;98076.13;5026806;28;19921;-83
2023/12/09 12:25:19;;;;;;;;;;;;;;;26.11;15.70;98073.88;5019976;28;22096;-85
2023/12/09 12:27:45;;;;;;;;;;;;;;;25.42;16.37;98079.00;5018795;28;19976;-84
2023/12/09 12:30:13;;;;;;;;;;;;;;;25.15;16.49;98072.13;5018612;28;19924;-84
2023/12/09 12:32:39;;;;;;;;;;;;;;;25.04;16.59;98066.78;5017589;28;20340;-84
2023/12/09 12:35:05;;;;;;;;;;;;;;;24.76;16.86;98073.13;5024310;28;19969;-84
2023/12/09 12:37:31;;;;;;;;;;;;;;;25.00;16.83;98077.31;5010678;28;19945;-83
2023/12/09 12:39:57;;;;;;;;;;;;;;;24.98;16.64;98074.16;5003465;28;20286;-84
2023/12/09 12:42:23;;;;;;;;;;;;;;;25.08;16.65;98075.13;5019006;28;20342;-83
2023/12/09 12:44:49;;;;;;;;;;;;;;;25.33;16.31;98076.03;5016266;28;19969;-83